Time;durP1;ratioP1;P1;durP2;ratioP2;P2;SDS_P1;SDS_P2;PMS_P1;PMS_P2;Temp;Humidity;BMP_temperature;BMP_pressure;BME280_temperature;BME280_humidity;BME280_pressure;Samples;Min_cycle;Max_cycle;Signal;HPM_P1;HPM_P2
2021/04/02 00:01:59;;;;;;;6.47;2.50;;;15.10;99.90;;;;;;5114104;28;20047;-78
2021/04/02 00:04:25;;;;;;;5.13;3.20;;;15.10;99.90;;;;;;5114037;28;20059;-78
2021/04/02 00:06:50;;;;;;;5.20;2.95;;;15.10;99.90;;;;;;5098965;28;20031;-78
2021/04/02 00:09:16;;;;;;;3.40;2.70;;;15.00;99.90;;;;;;5093490;28;20016;-78
2021/04/02 00:11:41;;;;;;;6.97;2.78;;;15.00;99.90;;;;;;5093178;28;20059;-78
2021/04/02 00:14:08;;;;;;;5.90;3.20;;;15.00;99.90;;;;;;5093533;28;20020;-78
2021/04/02 00:16:35;;;;;;;3.60;2.70;;;15.10;99.90;;;;;;5093579;28;20024;-78
2021/04/02 00:19:00;;;;;;;6.57;2.83;;;14.90;99.90;;;;;;5092390;28;20055;-78
2021/04/02 00:21:26;;;;;;;6.53;3.00;;;14.80;99.90;;;;;;5104665;28;20104;-78
2021/04/02 00:23:52;;;;;;;6.50;3.17;;;14.90;99.90;;;;;;5093196;28;20032;-78
2021/04/02 00:26:19;;;;;;;3.97;2.78;;;14.70;99.90;;;;;;5093139;28;20028;-78
2021/04/02 00:28:46;;;;;;;4.45;2.90;;;14.70;99.90;;;;;;5093460;28;20679;-78
2021/04/02 00:31:12;;;;;;;5.28;3.30;;;14.80;99.90;;;;;;5093286;28;20016;-78
2021/04/02 00:33:38;;;;;;;6.57;2.78;;;14.70;99.90;;;;;;5093307;28;20031;-78
2021/04/02 00:36:04;;;;;;;4.90;2.80;;;14.60;99.90;;;;;;5105541;28;20118;-78
2021/04/02 00:38:30;;;;;;;6.03;2.85;;;14.40;99.90;;;;;;5113281;28;20463;-78
2021/04/02 00:41:14;;;;;;;5.85;2.60;;;14.50;99.90;;;;;;5113433;28;20044;-78
2021/04/02 00:43:50;;;;;;;5.47;3.00;;;14.30;99.90;;;;;;5112342;28;20035;-78
2021/04/02 00:46:18;;;;;;;3.17;2.75;;;14.50;99.90;;;;;;5113366;28;20028;-78
2021/04/02 00:48:45;;;;;;;4.50;3.38;;;14.40;99.90;;;;;;5112960;28;20513;-78
2021/04/02 00:51:20;;;;;;;5.07;3.15;;;14.40;99.90;;;;;;5097673;28;20416;-78
2021/04/02 00:53:46;;;;;;;3.90;3.10;;;14.40;99.90;;;;;;5093010;28;20123;-78
2021/04/02 00:56:13;;;;;;;3.40;3.00;;;14.20;99.90;;;;;;5092822;28;20476;-78
2021/04/02 00:58:40;;;;;;;5.05;3.00;;;14.00;99.90;;;;;;5092568;28;20055;-78
2021/04/02 01:01:08;;;;;;;8.13;2.85;;;13.90;99.90;;;;;;5091977;28;20073;-78
2021/04/02 01:03:35;;;;;;;3.88;2.95;;;13.90;99.90;;;;;;5104111;28;20030;-78
2021/04/02 01:06:05;;;;;;;5.05;2.90;;;14.10;99.90;;;;;;5110373;28;20059;-78
2021/04/02 01:08:33;;;;;;;7.30;2.92;;;13.80;99.90;;;;;;5100489;28;20024;-78
2021/04/02 01:11:02;;;;;;;7.47;2.90;;;13.90;99.90;;;;;;5093005;28;20052;-78
2021/04/02 01:13:40;;;;;;;4.75;3.00;;;14.00;99.90;;;;;;5092645;28;20017;-78
2021/04/02 01:16:14;;;;;;;6.05;2.95;;;13.90;99.90;;;;;;5092804;28;20024;-78
2021/04/02 01:19:16;;;;;;;4.50;2.67;;;13.80;99.90;;;;;;5092586;28;20020;-78
2021/04/02 01:21:42;;;;;;;3.75;2.88;;;13.70;99.90;;;;;;5077304;28;20063;-78
2021/04/02 01:24:16;;;;;;;7.30;2.97;;;14.00;99.90;;;;;;5092069;28;20028;-78
2021/04/02 01:26:55;;;;;;;3.90;3.10;;;13.70;99.90;;;;;;5091480;28;20123;-78
2021/04/02 01:29:53;;;;;;;3.92;2.90;;;14.20;99.90;;;;;;5092606;28;20028;-78
2021/04/02 01:32:28;;;;;;;6.68;2.72;;;13.90;99.90;;;;;;5092646;28;20369;-78
2021/04/02 01:35:01;;;;;;;5.28;2.78;;;13.60;99.90;;;;;;5090981;28;20396;-78
2021/04/02 01:37:33;;;;;;;6.20;3.00;;;13.50;99.90;;;;;;5092197;28;20410;-78
2021/04/02 01:40:01;;;;;;;5.80;3.03;;;13.50;99.90;;;;;;5092371;28;20023;-78
2021/04/02 01:42:28;;;;;;;4.80;2.95;;;13.50;99.90;;;;;;5092804;28;20024;-78
2021/04/02 01:44:55;;;;;;;4.80;2.95;;;13.50;99.90;;;;;;5092530;28;20484;-78
2021/04/02 01:47:23;;;;;;;8.23;3.20;;;13.40;99.90;;;;;;5092693;28;20043;-78
2021/04/02 01:49:52;;;;;;;6.15;3.60;;;13.50;99.90;;;;;;5091276;28;20024;-78
2021/04/02 01:52:19;;;;;;;7.13;2.67;;;13.40;99.90;;;;;;5092121;28;20039;-78
2021/04/02 01:54:45;;;;;;;5.03;2.65;;;13.50;99.90;;;;;;5092507;28;20020;-78
2021/04/02 01:57:11;;;;;;;4.13;3.08;;;13.40;99.90;;;;;;5092407;28;20028;-78
2021/04/02 01:59:38;;;;;;;6.43;2.83;;;13.30;99.90;;;;;;5093063;28;20028;-78
2021/04/02 02:02:06;;;;;;;7.25;3.25;;;13.20;99.90;;;;;;5096059;28;20047;-78
2021/04/02 02:04:33;;;;;;;5.85;2.83;;;13.00;99.90;;;;;;5103307;28;20024;-78
2021/04/02 02:07:00;;;;;;;5.35;2.95;;;13.00;99.90;;;;;;5116303;28;20031;-78
2021/04/02 02:09:33;;;;;;;5.95;3.30;;;12.90;99.90;;;;;;5116139;28;20020;-78
2021/04/02 02:12:02;;;;;;;7.25;2.78;;;13.00;99.90;;;;;;5116213;28;20500;-78
2021/04/02 02:14:32;;;;;;;8.18;3.10;;;13.10;99.90;;;;;;5116068;28;20472;-78
2021/04/02 02:17:03;;;;;;;5.47;2.70;;;13.10;99.90;;;;;;5116308;28;20022;-78
2021/04/02 02:19:34;;;;;;;12.48;3.58;;;13.10;99.90;;;;;;5106094;28;20483;-78
2021/04/02 02:22:04;;;;;;;6.20;3.20;;;13.00;99.90;;;;;;5095482;28;20047;-78
2021/04/02 02:24:30;;;;;;;5.60;2.80;;;12.90;99.90;;;;;;5095608;28;20376;-78
2021/04/02 02:26:56;;;;;;;3.85;2.63;;;12.90;99.90;;;;;;5095679;28;20071;-78
2021/04/02 02:29:22;;;;;;;5.13;3.00;;;12.80;99.90;;;;;;5095678;28;20421;-78
2021/04/02 02:31:48;;;;;;;5.78;2.67;;;12.80;99.90;;;;;;5095396;28;20106;-78
2021/04/02 02:34:14;;;;;;;4.93;2.63;;;12.80;99.90;;;;;;5095658;28;20107;-78
2021/04/02 02:36:39;;;;;;;4.55;2.40;;;12.80;99.90;;;;;;5094908;28;20495;-78
2021/04/02 02:39:10;;;;;;;5.07;2.83;;;12.70;99.90;;;;;;5095227;28;20032;-78
2021/04/02 02:41:37;;;;;;;6.50;2.75;;;12.70;99.90;;;;;;5095356;28;20024;-78
2021/04/02 02:44:03;;;;;;;4.30;2.72;;;12.80;99.90;;;;;;5095236;28;20031;-78
2021/04/02 02:46:30;;;;;;;7.00;2.83;;;12.90;99.90;;;;;;5095293;28;20443;-78
2021/04/02 02:49:00;;;;;;;3.80;2.88;;;12.80;99.90;;;;;;5107946;28;20050;-78
2021/04/02 02:51:31;;;;;;;4.75;2.92;;;12.70;99.90;;;;;;5114960;28;20047;-78
2021/04/02 02:54:00;;;;;;;5.22;2.83;;;12.60;99.90;;;;;;5115399;28;20139;-78
2021/04/02 02:56:28;;;;;;;5.50;3.10;;;12.70;99.90;;;;;;5115438;28;20047;-78
2021/04/02 02:58:54;;;;;;;7.78;3.05;;;12.60;99.90;;;;;;5115453;28;20041;-78
2021/04/02 03:01:20;;;;;;;7.70;2.97;;;12.50;99.90;;;;;;5115276;28;20020;-78
2021/04/02 03:03:47;;;;;;;4.40;2.72;;;12.30;99.90;;;;;;5099975;28;20024;-78
2021/04/02 03:06:13;;;;;;;3.63;2.75;;;12.30;99.90;;;;;;5094482;28;20028;-78
2021/04/02 03:08:45;;;;;;;5.10;2.95;;;12.70;99.90;;;;;;5094622;28;20028;-78
2021/04/02 03:11:13;;;;;;;7.53;3.25;;;12.40;99.90;;;;;;5094294;28;20148;-78
2021/04/02 03:13:40;;;;;;;5.55;3.30;;;12.30;99.90;;;;;;5094602;28;20064;-78
2021/04/02 03:16:07;;;;;;;9.35;3.58;;;12.10;99.90;;;;;;5094694;28;20491;-78
2021/04/02 03:18:34;;;;;;;4.47;3.00;;;12.10;99.90;;;;;;5113603;28;20027;-78
2021/04/02 03:21:01;;;;;;;5.45;3.38;;;12.20;99.90;;;;;;5114408;28;20063;-78
2021/04/02 03:23:28;;;;;;;5.00;3.00;;;12.20;99.90;;;;;;5095208;28;20040;-78
2021/04/02 03:25:54;;;;;;;5.45;3.20;;;12.10;99.90;;;;;;5094267;28;20446;-78
2021/04/02 03:28:21;;;;;;;4.32;2.97;;;12.10;99.90;;;;;;5094628;28;20036;-78
2021/04/02 03:30:47;;;;;;;8.07;3.08;;;12.10;99.90;;;;;;5094280;28;20035;-78
2021/04/02 03:33:28;;;;;;;5.30;2.88;;;12.10;99.90;;;;;;5113075;28;20042;-78
2021/04/02 03:35:58;;;;;;;4.65;2.97;;;12.10;99.90;;;;;;5114309;28;20032;-78
2021/04/02 03:38:29;;;;;;;4.75;3.10;;;12.20;99.90;;;;;;5114757;28;20057;-78
2021/04/02 03:40:56;;;;;;;6.95;2.97;;;12.20;99.90;;;;;;5114446;28;20035;-78
2021/04/02 03:43:24;;;;;;;5.00;2.60;;;12.10;99.90;;;;;;5114443;28;20026;-78
2021/04/02 03:45:50;;;;;;;4.55;3.08;;;12.30;99.90;;;;;;5114265;28;20387;-78
2021/04/02 03:48:19;;;;;;;4.75;3.10;;;12.40;99.90;;;;;;5097549;28;20024;-78
2021/04/02 03:50:52;;;;;;;5.25;3.08;;;12.10;99.90;;;;;;5093963;28;20442;-78
2021/04/02 03:53:29;;;;;;;4.78;3.00;;;12.00;99.90;;;;;;5093787;28;20114;-78
2021/04/02 03:55:57;;;;;;;3.42;2.83;;;12.00;99.90;;;;;;5093836;28;20073;-78
2021/04/02 03:58:24;;;;;;;4.70;3.28;;;11.80;99.90;;;;;;5093886;28;20027;-78
2021/04/02 04:00:50;;;;;;;6.55;2.58;;;12.10;99.90;;;;;;5093742;28;20111;-78
2021/04/02 04:03:17;;;;;;;3.60;2.78;;;11.60;99.90;;;;;;5105955;28;20107;-78
2021/04/02 04:05:46;;;;;;;9.77;3.47;;;12.00;99.90;;;;;;5113972;28;20025;-78
2021/04/02 04:08:14;;;;;;;6.07;3.00;;;11.60;99.90;;;;;;5113876;28;20031;-78
2021/04/02 04:10:42;;;;;;;4.78;3.00;;;11.80;99.90;;;;;;5114067;28;20024;-78
2021/04/02 04:13:12;;;;;;;4.80;3.20;;;12.00;99.90;;;;;;5113960;28;20020;-78
2021/04/02 04:15:40;;;;;;;6.72;3.30;;;11.70;99.90;;;;;;5114028;28;20020;-78
2021/04/02 04:18:08;;;;;;;6.03;3.67;;;11.70;99.90;;;;;;5099497;28;20372;-78
2021/04/02 04:20:35;;;;;;;5.47;3.47;;;11.40;99.90;;;;;;5093346;28;20046;-78
2021/04/02 04:23:01;;;;;;;7.53;3.30;;;11.80;99.90;;;;;;5092529;28;20035;-78
2021/04/02 04:25:27;;;;;;;6.30;3.15;;;11.20;99.90;;;;;;5093573;28;20032;-78
2021/04/02 04:27:55;;;;;;;7.22;3.40;;;11.20;99.90;;;;;;5092879;28;20020;-78
2021/04/02 04:30:22;;;;;;;4.75;2.90;;;11.50;99.90;;;;;;5093422;28;20078;-78
2021/04/02 04:32:49;;;;;;;7.28;3.30;;;11.30;99.90;;;;;;5092744;28;20047;-78
2021/04/02 04:35:17;;;;;;;10.00;3.53;;;11.20;99.90;;;;;;5093257;28;20020;-78
2021/04/02 04:37:45;;;;;;;6.45;3.45;;;11.20;99.90;;;;;;5091855;28;20017;-78
2021/04/02 04:40:15;;;;;;;4.78;3.15;;;11.10;99.90;;;;;;5093220;28;20036;-78
2021/04/02 04:42:44;;;;;;;7.45;3.05;;;11.00;99.90;;;;;;5104204;28;20030;-78
2021/04/02 04:45:11;;;;;;;6.68;3.15;;;11.00;99.90;;;;;;5113445;28;20032;-78
2021/04/02 04:47:37;;;;;;;10.23;3.65;;;11.10;99.90;;;;;;5113269;28;20031;-78
2021/04/02 04:50:07;;;;;;;7.47;3.40;;;11.10;99.90;;;;;;5113204;28;20063;-78
2021/04/02 04:52:38;;;;;;;6.43;3.30;;;11.10;99.90;;;;;;5099466;28;20017;-78
2021/04/02 04:55:06;;;;;;;6.70;3.50;;;11.10;99.90;;;;;;5093137;28;20028;-78
2021/04/02 04:57:35;;;;;;;10.82;3.60;;;11.10;99.90;;;;;;5098494;28;20107;-78
2021/04/02 05:00:03;;;;;;;6.88;3.40;;;11.40;99.90;;;;;;5111240;28;20043;-78
2021/04/02 05:02:30;;;;;;;7.43;3.60;;;10.80;99.90;;;;;;5112287;28;20016;-78
2021/04/02 05:04:58;;;;;;;4.47;3.20;;;10.80;99.90;;;;;;5095768;28;20028;-78
2021/04/02 05:07:25;;;;;;;7.60;3.40;;;11.10;99.90;;;;;;5091676;28;20031;-78
2021/04/02 05:09:53;;;;;;;9.18;4.28;;;11.10;99.90;;;;;;5092360;28;20020;-78
2021/04/02 05:12:20;;;;;;;6.70;3.47;;;11.30;99.90;;;;;;5092290;28;20105;-78
2021/04/02 05:14:47;;;;;;;6.15;4.15;;;10.90;99.90;;;;;;5092033;28;20111;-78
2021/04/02 05:17:14;;;;;;;5.35;3.83;;;11.00;99.90;;;;;;5091450;28;20016;-78
2021/04/02 05:19:41;;;;;;;10.00;4.32;;;11.00;99.90;;;;;;5091743;28;20042;-78
2021/04/02 05:22:09;;;;;;;5.97;3.35;;;11.40;99.90;;;;;;5099161;28;20085;-79
2021/04/02 05:24:36;;;;;;;10.30;3.78;;;11.30;99.90;;;;;;5100518;28;20111;-78
2021/04/02 05:27:05;;;;;;;5.25;3.60;;;11.20;99.90;;;;;;5098059;28;20020;-78
2021/04/02 05:29:31;;;;;;;7.65;4.30;;;10.70;99.90;;;;;;5105159;28;20039;-78
2021/04/02 05:31:56;;;;;;;4.18;3.40;;;11.00;99.90;;;;;;5099983;28;20024;-78
2021/04/02 05:34:22;;;;;;;9.35;4.05;;;10.70;99.90;;;;;;5109108;28;20475;-78
2021/04/02 05:36:47;;;;;;;5.25;3.45;;;10.70;99.90;;;;;;5111170;28;20019;-78
2021/04/02 05:39:13;;;;;;;10.30;3.85;;;10.80;99.90;;;;;;5095220;28;20039;-78
2021/04/02 05:41:53;;;;;;;9.23;4.00;;;10.60;99.90;;;;;;5096036;28;20080;-78
2021/04/02 05:44:26;;;;;;;8.73;3.78;;;10.50;99.90;;;;;;5112164;28;20093;-77
2021/04/02 05:46:52;;;;;;;8.55;4.05;;;10.70;99.90;;;;;;5114555;28;20046;-77
2021/04/02 05:49:21;;;;;;;8.02;3.92;;;11.00;99.90;;;;;;5098761;28;20504;-77
2021/04/02 05:51:49;;;;;;;10.75;4.57;;;10.70;99.90;;;;;;5104943;28;20008;-77
2021/04/02 05:54:23;;;;;;;6.03;4.38;;;10.90;99.90;;;;;;5102327;28;20031;-77
2021/04/02 05:56:51;;;;;;;10.35;4.47;;;10.80;99.90;;;;;;5095740;28;20434;-77
2021/04/02 05:59:17;;;;;;;8.90;4.30;;;10.90;99.90;;;;;;5101749;28;20360;-77
2021/04/02 06:01:43;;;;;;;8.90;4.35;;;10.90;99.90;;;;;;5106045;28;20020;-77
2021/04/02 06:04:09;;;;;;;10.10;4.00;;;10.90;99.90;;;;;;5095718;28;20028;-77
2021/04/02 06:06:35;;;;;;;6.50;4.07;;;11.30;99.90;;;;;;5100002;28;20421;-77
2021/04/02 06:09:01;;;;;;;8.85;4.07;;;11.40;99.90;;;;;;5115613;28;20073;-78
2021/04/02 06:11:27;;;;;;;6.50;3.40;;;11.00;99.90;;;;;;5115394;28;20371;-77
2021/04/02 06:13:52;;;;;;;8.70;3.83;;;11.10;99.90;;;;;;5104511;28;20036;-77
2021/04/02 06:16:18;;;;;;;6.07;3.60;;;11.30;99.90;;;;;;5095152;28;20024;-77
2021/04/02 06:18:44;;;;;;;9.48;4.20;;;11.40;99.90;;;;;;5095126;28;20035;-77
2021/04/02 06:21:09;;;;;;;10.65;5.03;;;11.80;99.90;;;;;;5095229;28;20170;-78
2021/04/02 06:23:36;;;;;;;9.00;4.25;;;11.40;99.90;;;;;;5095425;28;20104;-78
2021/04/02 06:26:06;;;;;;;6.72;3.97;;;11.40;99.90;;;;;;5095672;28;20377;-77
2021/04/02 06:28:36;;;;;;;9.32;4.65;;;11.60;99.90;;;;;;5095115;28;20419;-77
2021/04/02 06:31:12;;;;;;;7.93;4.75;;;11.50;99.90;;;;;;5095654;28;20048;-77
2021/04/02 06:33:46;;;;;;;6.63;4.68;;;11.70;99.90;;;;;;5095352;28;20024;-77
2021/04/02 06:36:14;;;;;;;11.00;4.32;;;11.90;99.90;;;;;;5095131;28;20024;-77
2021/04/02 06:38:45;;;;;;;7.47;4.18;;;11.90;99.90;;;;;;5095090;28;20024;-77
2021/04/02 06:41:12;;;;;;;7.88;4.28;;;12.00;99.90;;;;;;5095054;28;20078;-78
2021/04/02 06:43:46;;;;;;;7.97;3.65;;;12.20;99.90;;;;;;5094900;28;20032;-78
2021/04/02 06:46:22;;;;;;;15.43;5.32;;;12.30;99.90;;;;;;5094474;28;20028;-78
2021/04/02 06:48:49;;;;;;;9.57;4.72;;;12.40;99.90;;;;;;5095238;28;20032;-78
2021/04/02 06:51:17;;;;;;;10.77;4.78;;;12.40;99.90;;;;;;5093680;28;20035;-78
2021/04/02 06:53:44;;;;;;;9.27;4.65;;;12.40;99.90;;;;;;5095063;28;20383;-78
2021/04/02 06:56:12;;;;;;;9.55;4.65;;;12.60;99.90;;;;;;5094890;28;20055;-78
2021/04/02 06:58:39;;;;;;;16.98;5.00;;;12.70;99.90;;;;;;5114902;28;20024;-78
2021/04/02 07:01:05;;;;;;;17.50;4.93;;;12.90;99.90;;;;;;5115153;28;20068;-78
2021/04/02 07:03:34;;;;;;;8.35;4.93;;;13.50;99.90;;;;;;5115106;28;20023;-78
2021/04/02 07:06:04;;;;;;;10.05;4.55;;;13.20;99.90;;;;;;5115152;28;20031;-78
2021/04/02 07:08:31;;;;;;;8.88;4.90;;;13.30;99.90;;;;;;5115212;28;20023;-77
2021/04/02 07:10:57;;;;;;;20.63;6.30;;;13.30;99.90;;;;;;5115302;28;20035;-78
2021/04/02 07:13:35;;;;;;;10.90;5.32;;;13.50;99.90;;;;;;5094704;28;20024;-78
2021/04/02 07:16:02;;;;;;;13.45;5.07;;;13.40;99.90;;;;;;5094745;28;20024;-77
2021/04/02 07:18:29;;;;;;;11.70;5.20;;;13.50;99.90;;;;;;5094367;28;20467;-78
2021/04/02 07:20:55;;;;;;;7.30;4.60;;;13.70;99.90;;;;;;5094513;28;20050;-78
2021/04/02 07:23:21;;;;;;;13.75;5.88;;;13.70;99.90;;;;;;5094022;28;20103;-78
2021/04/02 07:25:47;;;;;;;8.82;4.72;;;13.80;99.90;;;;;;5094310;28;20103;-78
2021/04/02 07:28:12;;;;;;;12.60;5.20;;;14.00;99.90;;;;;;5112723;28;20039;-78
2021/04/02 07:30:39;;;;;;;12.52;4.63;;;14.10;99.90;;;;;;5114813;28;20386;-78
2021/04/02 07:33:10;;;;;;;9.68;4.80;;;14.00;99.90;;;;;;5114660;28;20019;-77
2021/04/02 07:35:37;;;;;;;7.75;4.53;;;14.00;99.90;;;;;;5114519;28;20016;-77
2021/04/02 07:38:04;;;;;;;6.68;4.70;;;14.10;99.90;;;;;;5113679;28;20016;-77
2021/04/02 07:40:34;;;;;;;11.88;5.07;;;14.20;99.90;;;;;;5114085;28;20107;-77
2021/04/02 07:43:08;;;;;;;7.90;5.00;;;14.30;99.90;;;;;;5114647;28;20471;-77
2021/04/02 07:45:37;;;;;;;12.68;5.95;;;14.40;99.90;;;;;;5114391;28;20032;-77
2021/04/02 07:48:21;;;;;;;9.00;4.97;;;14.60;99.90;;;;;;5113042;28;20422;-77
2021/04/02 07:50:49;;;;;;;11.07;5.68;;;14.90;99.90;;;;;;5114557;28;20498;-77
2021/04/02 07:53:19;;;;;;;11.85;5.63;;;14.90;99.90;;;;;;5101841;28;20067;-78
2021/04/02 07:55:52;;;;;;;9.57;5.28;;;14.90;99.90;;;;;;5093539;28;20044;-78
2021/04/02 07:58:30;;;;;;;9.52;5.18;;;15.00;99.90;;;;;;5093792;28;20039;-76
2021/04/02 08:00:58;;;;;;;14.70;5.25;;;15.00;99.90;;;;;;5093848;28;20020;-77
2021/04/02 08:03:26;;;;;;;11.27;5.30;;;15.20;99.90;;;;;;5093480;28;20046;-77
2021/04/02 08:05:51;;;;;;;12.45;4.97;;;15.30;99.90;;;;;;5093848;28;20472;-78
2021/04/02 08:08:17;;;;;;;17.13;5.82;;;15.40;99.90;;;;;;5107871;28;20050;-77
2021/04/02 08:11:06;;;;;;;16.15;5.05;;;15.60;99.90;;;;;;5113606;28;20036;-77
2021/04/02 08:13:51;;;;;;;8.82;5.22;;;15.70;99.90;;;;;;5113931;28;20016;-77
2021/04/02 08:16:40;;;;;;;8.02;4.82;;;15.90;99.90;;;;;;5073247;28;20033;-77
2021/04/02 08:19:14;;;;;;;10.13;5.18;;;16.10;99.90;;;;;;5072112;28;20412;-77
2021/04/02 08:22:08;;;;;;;14.10;5.75;;;16.20;99.90;;;;;;5077444;28;20110;-77
2021/04/02 08:24:36;;;;;;;8.50;4.70;;;16.20;99.90;;;;;;5090420;28;20032;-77
2021/04/02 08:27:04;;;;;;;7.13;4.47;;;16.20;99.90;;;;;;5093383;28;20024;-77
2021/04/02 08:29:30;;;;;;;9.90;5.00;;;16.30;99.90;;;;;;5101879;28;20452;-77
2021/04/02 08:32:01;;;;;;;7.38;4.45;;;16.50;99.90;;;;;;5113242;28;20046;-77
2021/04/02 08:34:29;;;;;;;9.55;4.43;;;16.60;99.90;;;;;;5113604;28;20456;-80
2021/04/02 08:36:57;;;;;;;11.13;4.18;;;16.70;99.90;;;;;;5113392;28;20035;-81
2021/04/02 08:39:24;;;;;;;6.75;3.67;;;16.80;99.90;;;;;;5113308;28;20034;-81
2021/04/02 08:42:02;;;;;;;10.13;3.35;;;17.10;99.90;;;;;;5113650;28;20020;-76
2021/04/02 08:44:28;;;;;;;10.95;4.10;;;17.30;99.90;;;;;;5113275;28;20024;-77
2021/04/02 08:46:58;;;;;;;9.43;3.70;;;17.50;99.90;;;;;;5095128;28;20042;-77
2021/04/02 08:49:24;;;;;;;5.40;3.60;;;17.60;99.90;;;;;;5092976;28;20072;-76
2021/04/02 08:51:49;;;;;;;9.80;4.50;;;17.60;99.90;;;;;;5092973;28;20024;-77
2021/04/02 08:54:18;;;;;;;10.48;4.28;;;17.70;99.90;;;;;;5092350;28;20031;-77
2021/04/02 08:56:44;;;;;;;6.43;3.63;;;17.90;99.90;;;;;;5092904;28;20028;-77
2021/04/02 08:59:12;;;;;;;7.32;3.55;;;18.20;99.90;;;;;;5092851;28;20024;-77
2021/04/02 09:01:48;;;;;;;6.35;3.17;;;18.30;99.90;;;;;;5110551;28;20440;-77
2021/04/02 09:04:16;;;;;;;9.70;3.60;;;18.40;99.90;;;;;;5113524;28;20024;-77
2021/04/02 09:06:42;;;;;;;6.65;3.17;;;18.40;99.90;;;;;;5113290;28;20452;-77
2021/04/02 09:09:22;;;;;;;6.43;2.88;;;18.50;99.90;;;;;;5114324;28;20024;-77
2021/04/02 09:11:50;;;;;;;8.23;3.30;;;18.50;99.90;;;;;;5117255;28;20038;-77
2021/04/02 09:14:16;;;;;;;6.57;3.30;;;18.70;99.90;;;;;;5115823;28;20043;-77
2021/04/02 09:16:44;;;;;;;8.73;3.53;;;18.90;99.90;;;;;;5096897;28;20028;-77
2021/04/02 09:19:11;;;;;;;7.82;3.70;;;19.10;99.90;;;;;;5096819;28;20492;-77
2021/04/02 09:21:37;;;;;;;9.43;3.70;;;19.10;99.90;;;;;;5096124;28;20048;-77
2021/04/02 09:24:04;;;;;;;6.95;3.50;;;19.30;99.90;;;;;;5096230;28;20095;-76
2021/04/02 09:26:34;;;;;;;6.32;3.53;;;19.40;99.90;;;;;;5096272;28;20112;-77
2021/04/02 09:29:00;;;;;;;6.95;3.47;;;19.40;99.90;;;;;;5096394;28;20494;-76
2021/04/02 09:31:27;;;;;;;6.07;3.35;;;19.60;99.90;;;;;;5115683;28;20042;-77
2021/04/02 09:33:59;;;;;;;7.80;3.40;;;19.70;99.90;;;;;;5116687;28;20098;-77
2021/04/02 09:36:27;;;;;;;7.30;3.40;;;20.10;99.90;;;;;;5116730;28;20050;-77
2021/04/02 09:39:03;;;;;;;6.20;3.35;;;20.10;99.90;;;;;;5116859;28;20028;-77
2021/04/02 09:41:29;;;;;;;6.53;3.53;;;20.10;99.90;;;;;;5116843;28;20028;-77
2021/04/02 09:43:55;;;;;;;9.68;3.42;;;20.30;99.90;;;;;;5115245;28;20026;-77
2021/04/02 09:46:35;;;;;;;7.32;3.28;;;20.60;99.90;;;;;;5096401;28;20059;-77
2021/04/02 09:49:22;;;;;;;5.80;3.22;;;20.90;99.90;;;;;;5096422;28;20066;-77
2021/04/02 09:51:56;;;;;;;6.57;3.10;;;21.30;99.90;;;;;;5095757;28;20035;-77
2021/04/02 09:54:24;;;;;;;4.32;3.50;;;22.10;99.90;;;;;;5096381;28;20024;-77
2021/04/02 09:56:51;;;;;;;7.13;3.90;;;23.20;99.90;;;;;;5096090;28;20074;-76
2021/04/02 09:59:16;;;;;;;7.93;3.53;;;25.70;99.90;;;;;;5095731;28;20464;-76
2021/04/02 10:01:43;;;;;;;7.78;3.97;;;28.10;99.90;;;;;;5095838;28;20043;-76
2021/04/02 10:04:10;;;;;;;7.25;3.78;;;28.80;99.90;;;;;;5096072;28;20036;-76
2021/04/02 10:06:37;;;;;;;8.65;4.28;;;30.30;99.90;;;;;;5095610;28;20024;-76
2021/04/02 10:09:04;;;;;;;8.98;4.43;;;31.10;99.90;;;;;;5096018;28;20024;-76
2021/04/02 10:11:31;;;;;;;8.10;3.88;;;31.60;99.90;;;;;;5095615;28;20020;-77
2021/04/02 10:13:56;;;;;;;9.82;4.55;;;31.90;99.90;;;;;;5101749;28;20535;-77
2021/04/02 10:16:23;;;;;;;10.88;4.85;;;32.80;99.90;;;;;;5104579;28;20098;-77
2021/04/02 10:18:50;;;;;;;7.72;3.97;;;32.70;99.90;;;;;;5095360;28;20091;-77
2021/04/02 10:21:20;;;;;;;6.35;4.18;;;32.80;99.90;;;;;;5093191;28;20411;-77
2021/04/02 10:23:47;;;;;;;8.48;4.28;;;34.60;99.90;;;;;;5094872;28;20081;-77
2021/04/02 10:26:13;;;;;;;6.15;4.05;;;33.90;99.90;;;;;;5095241;28;20437;-77
2021/04/02 10:28:39;;;;;;;9.57;4.40;;;34.10;99.90;;;;;;5094633;28;20027;-77
2021/04/02 10:31:05;;;;;;;9.02;4.30;;;35.20;99.90;;;;;;5095169;28;20022;-77
2021/04/02 10:33:30;;;;;;;8.65;4.25;;;34.70;99.90;;;;;;5094992;28;20081;-78
2021/04/02 10:35:56;;;;;;;9.80;4.38;;;34.60;99.90;;;;;;5094338;28;20024;-79
2021/04/02 10:38:22;;;;;;;6.05;3.58;;;34.90;99.90;;;;;;5094978;28;20027;-78
2021/04/02 10:40:48;;;;;;;6.90;3.85;;;33.70;99.90;;;;;;5094680;28;20549;-78
2021/04/02 10:43:14;;;;;;;6.32;3.72;;;33.40;99.90;;;;;;5095440;28;20381;-77
2021/04/02 10:45:40;;;;;;;6.65;4.03;;;34.10;99.90;;;;;;5115334;28;20103;-77
2021/04/02 10:48:06;;;;;;;6.55;4.20;;;35.80;99.90;;;;;;5115063;28;20387;-78
2021/04/02 10:50:32;;;;;;;9.50;3.95;;;35.90;99.90;;;;;;5114652;28;20028;-78
2021/04/02 10:52:58;;;;;;;6.22;3.58;;;36.00;99.90;;;;;;5114963;28;20027;-79
2021/04/02 10:55:24;;;;;;;5.90;3.67;;;36.80;99.90;;;;;;5112351;28;20380;-78
2021/04/02 10:57:50;;;;;;;6.53;3.97;;;37.60;99.90;;;;;;5099111;28;20508;-79
2021/04/02 11:00:18;;;;;;;8.05;4.05;;;37.30;99.90;;;;;;5113264;28;20065;-82
2021/04/02 11:02:43;;;;;;;7.97;3.85;;;37.00;99.90;;;;;;5114831;28;20063;-80
2021/04/02 11:05:10;;;;;;;5.25;3.90;;;37.30;99.90;;;;;;5096544;28;20109;-79
2021/04/02 11:07:37;;;;;;;8.35;4.00;;;36.30;99.90;;;;;;5095821;28;20484;-80
2021/04/02 11:10:12;;;;;;;6.90;3.60;;;36.30;99.90;;;;;;5092974;28;20582;-78
2021/04/02 11:12:39;;;;;;;7.68;3.80;;;37.20;99.90;;;;;;5101853;28;20020;-79
2021/04/02 11:15:07;;;;;;;5.47;3.85;;;37.20;99.90;;;;;;5090575;28;20090;-78
2021/04/02 11:17:33;;;;;;;6.63;3.70;;;38.20;99.90;;;;;;5103731;28;20528;-78
2021/04/02 11:20:00;;;;;;;6.47;3.60;;;36.90;99.90;;;;;;5093285;28;20097;-77
2021/04/02 11:22:26;;;;;;;8.38;4.00;;;37.40;99.90;;;;;;5093960;28;20040;-78
2021/04/02 11:24:53;;;;;;;6.57;3.97;;;37.20;99.90;;;;;;5093942;28;20035;-79
2021/04/02 11:27:19;;;;;;;8.00;3.90;;;37.70;99.90;;;;;;5094267;28;20032;-79
2021/04/02 11:29:45;;;;;;;8.15;4.38;;;38.10;99.90;;;;;;5099640;28;20089;-79
2021/04/02 11:32:11;;;;;;;7.60;4.28;;;38.30;99.90;;;;;;5114093;28;20035;-83
2021/04/02 11:34:38;;;;;;;10.60;4.45;;;36.80;99.90;;;;;;5109721;28;20027;-82
2021/04/02 11:37:04;;;;;;;6.97;4.40;;;37.30;99.90;;;;;;5093551;28;20392;-79
2021/04/02 11:39:30;;;;;;;7.32;4.18;;;37.40;99.90;;;;;;5093576;28;20028;-79
2021/04/02 11:41:57;;;;;;;7.68;4.10;;;36.80;99.90;;;;;;5093646;28;20141;-79
2021/04/02 11:44:22;;;;;;;8.00;4.32;;;37.40;99.90;;;;;;5096416;28;20368;-79
2021/04/02 11:46:49;;;;;;;6.47;3.70;;;37.50;99.90;;;;;;5113680;28;20031;-79
2021/04/02 11:49:14;;;;;;;5.72;3.30;;;37.00;99.90;;;;;;5112354;28;20429;-80
2021/04/02 11:51:40;;;;;;;9.68;3.70;;;37.00;99.90;;;;;;5113941;28;20032;-80
2021/04/02 11:54:06;;;;;;;5.80;3.28;;;37.10;99.90;;;;;;5113952;28;20049;-80
2021/04/02 11:56:32;;;;;;;9.57;3.95;;;36.90;99.90;;;;;;5114253;28;20027;-80
2021/04/02 11:58:57;;;;;;;7.47;4.32;;;36.70;99.90;;;;;;5110427;28;20031;-80
2021/04/02 12:01:23;;;;;;;9.55;4.10;;;37.10;99.90;;;;;;5100074;28;20463;-80
2021/04/02 12:03:49;;;;;;;9.93;4.00;;;37.80;99.90;;;;;;5114014;28;20027;-80
2021/04/02 12:06:15;;;;;;;7.63;4.15;;;37.30;99.90;;;;;;5113950;28;20032;-80
2021/04/02 12:08:41;;;;;;;13.50;4.53;;;36.30;99.90;;;;;;5113948;28;20034;-80
2021/04/02 12:11:07;;;;;;;7.88;4.57;;;37.10;99.90;;;;;;5113861;28;20106;-80
2021/04/02 12:13:33;;;;;;;8.32;5.28;;;37.00;99.90;;;;;;5113843;28;20028;-80
2021/04/02 12:15:59;;;;;;;9.23;5.55;;;36.10;99.90;;;;;;5095589;28;20042;-80
2021/04/02 12:18:25;;;;;;;11.95;6.20;;;36.30;99.90;;;;;;5093622;28;20027;-80
2021/04/02 12:20:51;;;;;;;9.48;5.50;;;36.60;99.90;;;;;;5093368;28;20057;-80
2021/04/02 12:23:17;;;;;;;8.88;5.53;;;36.40;99.90;;;;;;5093204;28;20031;-80
2021/04/02 12:25:43;;;;;;;9.48;6.28;;;36.70;99.90;;;;;;5093302;28;20396;-80
2021/04/02 12:28:08;;;;;;;10.80;6.25;;;36.00;99.90;;;;;;5093216;28;20031;-80
2021/04/02 12:30:34;;;;;;;8.73;6.47;;;35.80;99.90;;;;;;5092646;28;20036;-80
2021/04/02 12:33:00;;;;;;;11.20;6.43;;;36.60;99.90;;;;;;5093327;28;20473;-80
2021/04/02 12:35:25;;;;;;;7.63;6.18;;;37.40;99.90;;;;;;5093073;28;20480;-80
2021/04/02 12:37:52;;;;;;;7.78;6.45;;;36.10;99.90;;;;;;5108818;28;20020;-80
2021/04/02 12:40:21;;;;;;;8.05;6.80;;;35.10;99.90;;;;;;5113613;28;20464;-80
2021/04/02 12:42:47;;;;;;;8.30;6.95;;;34.70;99.90;;;;;;5111982;28;20044;-80
2021/04/02 12:45:14;;;;;;;8.27;7.05;;;34.60;99.90;;;;;;5112639;28;20024;-80
2021/04/02 12:47:40;;;;;;;11.07;8.15;;;35.70;99.90;;;;;;5113574;28;20027;-80
2021/04/02 12:50:14;;;;;;;9.23;6.50;;;34.70;99.90;;;;;;5113276;28;20498;-80
2021/04/02 12:52:40;;;;;;;7.90;7.05;;;34.10;99.90;;;;;;5096491;28;20063;-80